Time;durP1;ratioP1;P1;durP2;ratioP2;P2;SDS_P1;SDS_P2;PMS_P1;PMS_P2;Temp;Humidity;BMP_temperature;BMP_pressure;BME280_temperature;BME280_humidity;BME280_pressure;Samples;Min_cycle;Max_cycle;Signal;HPM_P1;HPM_P2
2023/06/09 00:00:40;;;;;;;8.25;3.72;;;14.10;99.90;;;;;;5058475;28;20137;-55
2023/06/09 00:03:07;;;;;;;16.42;4.50;;;13.70;99.90;;;;;;5059034;28;20037;-55
2023/06/09 00:05:33;;;;;;;9.70;3.72;;;13.60;99.90;;;;;;5057186;28;20515;-55
2023/06/09 00:08:00;;;;;;;12.30;3.95;;;13.60;99.90;;;;;;5058694;28;20037;-55
2023/06/09 00:10:26;;;;;;;10.38;3.72;;;13.50;99.90;;;;;;5058774;28;20044;-55
2023/06/09 00:12:53;;;;;;;13.90;4.28;;;13.50;99.90;;;;;;5058307;28;20037;-55
2023/06/09 00:15:19;;;;;;;11.77;4.63;;;13.50;99.90;;;;;;5058867;28;20066;-55
2023/06/09 00:17:45;;;;;;;12.23;4.15;;;13.50;99.90;;;;;;5058442;28;20049;-55
2023/06/09 00:20:12;;;;;;;11.77;3.78;;;13.40;99.90;;;;;;5058687;28;20051;-55
2023/06/09 00:22:48;;;;;;;10.95;4.32;;;13.40;99.90;;;;;;5061412;28;20060;-56
2023/06/09 00:25:15;;;;;;;11.70;4.30;;;13.40;99.90;;;;;;5062118;28;20591;-55
2023/06/09 00:27:45;;;;;;;8.38;4.07;;;13.30;99.90;;;;;;5062944;28;20412;-55
2023/06/09 00:30:15;;;;;;;9.88;3.85;;;13.40;99.90;;;;;;5061893;28;20044;-55
2023/06/09 00:32:44;;;;;;;12.15;4.07;;;13.30;99.90;;;;;;5062639;28;20047;-55
2023/06/09 00:35:09;;;;;;;13.02;4.20;;;13.30;99.90;;;;;;5062043;28;20068;-55
2023/06/09 00:37:35;;;;;;;8.85;4.13;;;13.30;99.90;;;;;;5062362;28;20037;-55
2023/06/09 00:40:02;;;;;;;11.10;4.00;;;13.30;99.90;;;;;;5061127;28;20131;-55
2023/06/09 00:42:28;;;;;;;11.98;4.38;;;13.20;99.90;;;;;;5062096;28;20045;-55
2023/06/09 00:44:54;;;;;;;11.57;4.43;;;13.20;99.90;;;;;;5061104;28;20045;-55
2023/06/09 00:47:19;;;;;;;13.68;4.28;;;13.20;99.90;;;;;;5061686;28;20045;-56
2023/06/09 00:49:45;;;;;;;9.65;4.57;;;13.20;99.90;;;;;;5062441;28;20083;-55
2023/06/09 00:52:11;;;;;;;12.10;4.30;;;13.20;99.90;;;;;;5061417;28;20079;-55
2023/06/09 00:54:38;;;;;;;9.90;4.47;;;13.30;99.90;;;;;;5062133;28;20041;-55
2023/06/09 00:57:05;;;;;;;10.48;4.22;;;13.30;99.90;;;;;;5061990;28;20049;-55
2023/06/09 00:59:35;;;;;;;12.05;4.07;;;13.20;99.90;;;;;;5061644;28;20041;-56
2023/06/09 01:02:05;;;;;;;14.25;4.40;;;13.20;99.90;;;;;;5062297;28;20118;-54
2023/06/09 01:04:32;;;;;;;9.75;4.10;;;13.20;99.90;;;;;;5061093;28;20049;-55
2023/06/09 01:07:42;;;;;;;12.15;4.40;;;13.20;99.90;;;;;;5061600;28;20067;-55
2023/06/09 01:10:21;;;;;;;9.88;4.03;;;13.20;99.90;;;;;;5061851;28;20053;-54
2023/06/09 01:13:12;;;;;;;8.48;3.90;;;13.30;99.90;;;;;;5061157;28;20047;-54
2023/06/09 01:15:45;;;;;;;12.00;4.20;;;13.30;99.90;;;;;;5061747;28;20049;-55
2023/06/09 01:18:14;;;;;;;14.27;4.82;;;13.30;99.90;;;;;;5061522;28;20045;-55
2023/06/09 01:21:20;;;;;;;12.55;4.32;;;13.30;99.90;;;;;;5061188;28;20051;-56
2023/06/09 01:24:19;;;;;;;12.93;4.30;;;13.30;99.90;;;;;;5059121;28;20080;-55
2023/06/09 01:26:45;;;;;;;9.52;4.18;;;13.20;99.90;;;;;;5058595;28;20044;-55
2023/06/09 01:29:13;;;;;;;10.18;4.28;;;13.20;99.90;;;;;;5060751;28;20459;-55
2023/06/09 01:31:40;;;;;;;12.75;3.90;;;13.30;99.90;;;;;;5061460;28;20049;-56
2023/06/09 01:34:06;;;;;;;10.13;4.55;;;13.30;99.90;;;;;;5060702;28;20056;-56
2023/06/09 01:36:34;;;;;;;11.48;4.10;;;13.30;99.90;;;;;;5061704;28;20116;-56
2023/06/09 01:39:00;;;;;;;10.38;4.60;;;13.30;99.90;;;;;;5060794;28;20091;-56
2023/06/09 01:41:25;;;;;;;8.20;4.05;;;13.30;99.90;;;;;;5061215;28;20074;-55
2023/06/09 01:43:51;;;;;;;11.35;4.22;;;13.30;99.90;;;;;;5060986;28;20049;-55
2023/06/09 01:46:17;;;;;;;13.70;5.35;;;13.30;99.90;;;;;;5060803;28;20037;-55
2023/06/09 01:49:07;;;;;;;8.32;4.38;;;13.20;99.90;;;;;;5061268;28;20041;-55
2023/06/09 01:51:54;;;;;;;12.38;5.10;;;13.20;99.90;;;;;;5060445;28;20037;-55
2023/06/09 01:54:35;;;;;;;12.45;4.57;;;13.20;99.90;;;;;;5061021;28;20075;-55
2023/06/09 01:57:12;;;;;;;13.77;4.93;;;13.10;99.90;;;;;;5060816;28;20083;-55
2023/06/09 01:59:56;;;;;;;11.45;4.75;;;13.10;99.90;;;;;;5060568;28;20056;-55
2023/06/09 02:02:25;;;;;;;12.75;5.00;;;13.10;99.90;;;;;;5060959;28;20041;-55
2023/06/09 02:04:53;;;;;;;15.10;5.00;;;13.00;99.90;;;;;;5060320;28;20044;-55
2023/06/09 02:07:19;;;;;;;13.80;4.88;;;13.00;99.90;;;;;;5060660;28;20067;-55
2023/06/09 02:09:45;;;;;;;17.75;5.80;;;13.00;99.90;;;;;;5060656;28;20480;-56
2023/06/09 02:12:11;;;;;;;11.30;5.35;;;13.00;99.90;;;;;;5060561;28;20037;-55
2023/06/09 02:14:39;;;;;;;15.00;4.95;;;13.00;99.90;;;;;;5060693;28;20048;-55
2023/06/09 02:17:05;;;;;;;14.80;5.68;;;13.00;99.90;;;;;;5060012;28;20045;-55
2023/06/09 02:19:30;;;;;;;14.68;5.35;;;12.70;99.90;;;;;;5060507;28;20544;-55
2023/06/09 02:21:59;;;;;;;11.45;5.05;;;12.90;99.90;;;;;;5059793;28;20041;-55
2023/06/09 02:24:28;;;;;;;12.70;5.32;;;12.90;99.90;;;;;;5060290;28;20048;-55
2023/06/09 02:26:57;;;;;;;14.90;5.25;;;12.90;99.90;;;;;;5059946;28;20044;-54
2023/06/09 02:29:24;;;;;;;13.85;5.45;;;12.90;99.90;;;;;;5060033;28;20536;-54
2023/06/09 02:31:50;;;;;;;14.20;5.15;;;13.00;99.90;;;;;;5060380;28;20076;-55
2023/06/09 02:34:16;;;;;;;14.93;5.45;;;13.00;99.90;;;;;;5059443;28;20053;-54
2023/06/09 02:36:42;;;;;;;11.75;4.97;;;13.00;99.90;;;;;;5059135;28;20119;-55
2023/06/09 02:39:09;;;;;;;11.95;4.95;;;13.00;99.90;;;;;;5059868;28;20052;-58
2023/06/09 02:41:34;;;;;;;15.25;5.57;;;13.00;99.90;;;;;;5058917;28;20045;-56
2023/06/09 02:44:00;;;;;;;12.40;5.43;;;13.00;99.90;;;;;;5059407;28;20091;-56
2023/06/09 02:46:26;;;;;;;11.77;4.95;;;13.00;99.90;;;;;;5059876;28;20045;-55
2023/06/09 02:48:51;;;;;;;14.10;5.57;;;12.90;99.90;;;;;;5060012;28;20097;-56
2023/06/09 02:51:17;;;;;;;13.90;5.30;;;13.00;99.90;;;;;;5059062;28;20040;-55
2023/06/09 02:53:43;;;;;;;11.75;5.50;;;13.00;99.90;;;;;;5058550;28;20060;-55
2023/06/09 02:56:10;;;;;;;17.50;6.53;;;12.90;99.90;;;;;;5059341;28;20037;-56
2023/06/09 02:58:35;;;;;;;13.40;5.20;;;12.90;99.90;;;;;;5059672;28;20473;-55
2023/06/09 03:01:02;;;;;;;15.68;5.63;;;12.90;99.90;;;;;;5059473;28;20041;-55
2023/06/09 03:03:30;;;;;;;14.20;6.07;;;12.90;99.90;;;;;;5059379;28;20088;-56
2023/06/09 03:05:58;;;;;;;12.52;5.28;;;12.90;99.90;;;;;;5059590;28;20057;-56
2023/06/09 03:08:24;;;;;;;13.20;5.07;;;12.90;99.90;;;;;;5059040;28;20497;-55
2023/06/09 03:10:50;;;;;;;11.63;4.97;;;12.90;99.90;;;;;;5059750;28;20488;-56
2023/06/09 03:13:15;;;;;;;17.38;6.18;;;12.80;99.90;;;;;;5059057;28;20065;-53
2023/06/09 03:15:42;;;;;;;15.52;6.00;;;12.80;99.90;;;;;;5059463;28;20049;-55
2023/06/09 03:18:08;;;;;;;11.82;5.45;;;12.70;99.90;;;;;;5058918;28;20049;-55
2023/06/09 03:20:36;;;;;;;13.20;5.18;;;12.70;99.90;;;;;;5059121;28;20100;-55
2023/06/09 03:23:02;;;;;;;15.75;5.93;;;12.60;99.90;;;;;;5059542;28;20087;-55
2023/06/09 03:25:30;;;;;;;13.80;5.60;;;12.60;99.90;;;;;;5058788;28;20103;-55
2023/06/09 03:27:56;;;;;;;18.75;5.65;;;12.60;99.90;;;;;;5059552;28;20041;-55
2023/06/09 03:30:22;;;;;;;10.02;5.22;;;12.50;99.90;;;;;;5058411;28;20082;-55
2023/06/09 03:32:48;;;;;;;15.10;6.13;;;12.50;99.90;;;;;;5059192;28;20064;-55
2023/06/09 03:35:15;;;;;;;16.52;6.57;;;12.50;99.90;;;;;;5059043;28;20041;-55
2023/06/09 03:37:41;;;;;;;15.45;6.28;;;12.50;99.90;;;;;;5059237;28;20037;-55
2023/06/09 03:40:07;;;;;;;13.38;6.40;;;12.50;99.90;;;;;;5059423;28;20441;-55
2023/06/09 03:42:33;;;;;;;12.45;6.15;;;12.50;99.90;;;;;;5058846;28;20045;-55
2023/06/09 03:44:58;;;;;;;11.63;6.28;;;12.40;99.90;;;;;;5058986;28;20052;-56
2023/06/09 03:47:25;;;;;;;12.77;5.63;;;12.40;99.90;;;;;;5058466;28;20052;-55
2023/06/09 03:49:51;;;;;;;16.85;6.68;;;12.40;99.90;;;;;;5059068;28;20041;-55
2023/06/09 03:52:17;;;;;;;12.88;6.30;;;12.50;99.90;;;;;;5058557;28;20045;-55
2023/06/09 03:54:42;;;;;;;15.77;6.18;;;12.40;99.90;;;;;;5058993;28;20052;-55
2023/06/09 03:57:08;;;;;;;13.55;6.57;;;12.40;99.90;;;;;;5061581;28;20044;-55
2023/06/09 03:59:34;;;;;;;14.10;6.78;;;12.40;99.90;;;;;;5062740;28;20072;-55
2023/06/09 04:01:59;;;;;;;15.88;6.90;;;12.40;99.90;;;;;;5063114;28;20045;-55
2023/06/09 04:04:25;;;;;;;15.00;6.82;;;12.40;99.90;;;;;;5062325;28;20041;-55
2023/06/09 04:06:51;;;;;;;13.73;6.57;;;12.30;99.90;;;;;;5062963;28;20779;-55
2023/06/09 04:09:16;;;;;;;16.20;6.90;;;12.40;99.90;;;;;;5062449;28;20041;-55
2023/06/09 04:11:43;;;;;;;17.05;7.07;;;12.40;99.90;;;;;;5062853;28;20041;-57
2023/06/09 04:14:09;;;;;;;15.32;6.82;;;12.10;99.90;;;;;;5062621;28;20049;-55
2023/06/09 04:16:34;;;;;;;11.55;6.57;;;12.40;99.90;;;;;;5062476;28;20083;-56
2023/06/09 04:19:00;;;;;;;15.20;7.05;;;12.40;99.90;;;;;;5062951;28;20083;-56
2023/06/09 04:21:26;;;;;;;18.92;7.40;;;12.40;99.90;;;;;;5062050;28;20104;-56
2023/06/09 04:23:52;;;;;;;12.88;7.40;;;12.40;99.90;;;;;;5062643;28;20490;-55
2023/06/09 04:26:17;;;;;;;14.80;6.45;;;12.50;99.90;;;;;;5062406;28;20132;-56
2023/06/09 04:28:43;;;;;;;16.08;6.95;;;12.50;99.90;;;;;;5062579;28;20385;-55
2023/06/09 04:31:10;;;;;;;13.00;6.75;;;12.50;99.90;;;;;;5062338;28;20108;-55
2023/06/09 04:33:36;;;;;;;19.55;7.22;;;12.50;99.90;;;;;;5062338;28;20045;-56
2023/06/09 04:36:03;;;;;;;16.05;6.95;;;12.50;99.90;;;;;;5062658;28;20049;-56
2023/06/09 04:38:33;;;;;;;13.70;7.00;;;12.50;99.90;;;;;;5061766;28;20548;-55
2023/06/09 04:41:03;;;;;;;12.10;6.38;;;12.60;99.90;;;;;;5062448;28;20048;-56
2023/06/09 04:43:36;;;;;;;14.32;6.88;;;12.60;99.90;;;;;;5060450;28;20056;-56
2023/06/09 04:46:05;;;;;;;15.93;7.10;;;12.70;99.90;;;;;;5061988;28;20062;-55
2023/06/09 04:48:33;;;;;;;17.70;7.43;;;12.70;99.90;;;;;;5062185;28;20513;-55
2023/06/09 04:51:01;;;;;;;13.45;7.25;;;12.70;99.90;;;;;;5060273;28;20138;-56
2023/06/09 04:53:28;;;;;;;16.27;6.97;;;12.70;99.90;;;;;;5062458;28;20068;-56
2023/06/09 04:55:54;;;;;;;16.25;6.95;;;12.80;99.90;;;;;;5061487;28;20041;-56
2023/06/09 04:58:20;;;;;;;18.27;6.95;;;12.80;99.90;;;;;;5061942;28;20047;-55
2023/06/09 05:00:46;;;;;;;14.70;7.68;;;12.80;99.90;;;;;;5061642;28;20041;-55
2023/06/09 05:03:13;;;;;;;22.25;7.65;;;12.80;99.90;;;;;;5061825;28;20045;-55
2023/06/09 05:05:41;;;;;;;15.85;7.43;;;12.90;99.90;;;;;;5061788;28;20102;-55
2023/06/09 05:08:07;;;;;;;20.02;7.32;;;12.90;99.90;;;;;;5061336;28;20135;-55
2023/06/09 05:10:32;;;;;;;15.07;7.60;;;12.90;99.90;;;;;;5062006;28;20056;-56
2023/06/09 05:12:58;;;;;;;14.30;6.95;;;13.00;99.90;;;;;;5061198;28;20051;-56
2023/06/09 05:15:26;;;;;;;20.70;7.13;;;13.00;99.90;;;;;;5061752;28;20060;-55
2023/06/09 05:17:52;;;;;;;15.45;7.68;;;13.10;99.90;;;;;;5061544;28;20048;-56
2023/06/09 05:20:18;;;;;;;15.80;7.75;;;13.10;99.90;;;;;;5061740;28;20413;-56
2023/06/09 05:22:45;;;;;;;14.73;7.43;;;13.20;99.90;;;;;;5061436;28;20089;-56
2023/06/09 05:25:13;;;;;;;17.08;8.02;;;13.20;99.90;;;;;;5061370;28;20052;-57
2023/06/09 05:27:39;;;;;;;15.02;7.88;;;13.30;99.90;;;;;;5061823;28;20083;-56
2023/06/09 05:30:05;;;;;;;17.38;7.53;;;13.40;99.90;;;;;;5060877;28;20568;-56
2023/06/09 05:32:31;;;;;;;13.48;7.57;;;13.40;99.90;;;;;;5061418;28;20037;-56
2023/06/09 05:34:57;;;;;;;17.02;7.80;;;13.50;99.90;;;;;;5061111;28;20045;-58
2023/06/09 05:37:23;;;;;;;12.90;7.43;;;13.60;99.90;;;;;;5061445;28;20072;-56
2023/06/09 05:39:48;;;;;;;19.35;7.47;;;13.60;99.90;;;;;;5061209;28;20049;-57
2023/06/09 05:42:15;;;;;;;14.52;6.53;;;13.70;99.90;;;;;;5061041;28;20037;-55
2023/06/09 05:44:40;;;;;;;15.85;7.45;;;13.70;99.90;;;;;;5061525;28;20045;-56
2023/06/09 05:47:06;;;;;;;14.77;7.47;;;13.80;99.90;;;;;;5060632;28;20077;-56
2023/06/09 05:49:33;;;;;;;18.25;8.20;;;13.90;99.90;;;;;;5061129;28;20041;-56
2023/06/09 05:51:59;;;;;;;15.18;7.55;;;14.00;99.90;;;;;;5060352;28;20860;-56
2023/06/09 05:54:26;;;;;;;18.60;6.80;;;14.00;99.90;;;;;;5060978;28;20045;-57
2023/06/09 05:56:53;;;;;;;15.95;6.68;;;14.20;99.90;;;;;;5061090;28;20051;-57
2023/06/09 05:59:20;;;;;;;14.90;7.10;;;14.20;99.90;;;;;;5060504;28;20053;-57
2023/06/09 06:01:50;;;;;;;11.68;6.00;;;14.30;99.90;;;;;;5060841;28;20068;-56
2023/06/09 06:04:16;;;;;;;20.15;7.90;;;14.40;99.90;;;;;;5060015;28;20045;-56
2023/06/09 06:06:41;;;;;;;12.45;6.47;;;14.50;99.90;;;;;;5060691;28;20327;-57
2023/06/09 06:09:08;;;;;;;14.82;6.45;;;14.60;99.90;;;;;;5060467;28;20513;-57
2023/06/09 06:11:33;;;;;;;10.90;6.30;;;14.70;99.90;;;;;;5060766;28;20047;-56
2023/06/09 06:13:59;;;;;;;18.25;6.95;;;14.70;99.90;;;;;;5060391;28;20100;-57
2023/06/09 06:16:25;;;;;;;16.23;7.00;;;14.90;99.90;;;;;;5060404;28;20096;-56
2023/06/09 06:18:50;;;;;;;12.27;6.38;;;15.00;99.90;;;;;;5059796;28;20051;-56
2023/06/09 06:21:17;;;;;;;17.50;8.18;;;15.10;99.90;;;;;;5059436;28;20040;-57
2023/06/09 06:23:43;;;;;;;13.55;6.35;;;15.20;99.90;;;;;;5060559;28;20048;-57
2023/06/09 06:26:09;;;;;;;13.85;6.93;;;15.40;99.90;;;;;;5059800;28;20041;-55
2023/06/09 06:28:34;;;;;;;14.75;6.47;;;15.50;99.90;;;;;;5060276;28;20056;-56
2023/06/09 06:31:03;;;;;;;15.55;6.38;;;15.60;99.90;;;;;;5059963;28;20079;-56
2023/06/09 06:33:29;;;;;;;9.35;6.05;;;15.80;99.90;;;;;;5059930;28;20096;-56
2023/06/09 06:35:56;;;;;;;13.52;6.90;;;16.00;99.90;;;;;;5060135;28;20040;-56
2023/06/09 06:38:22;;;;;;;11.90;5.82;;;16.20;99.90;;;;;;5059639;28;20041;-56
2023/06/09 06:40:48;;;;;;;11.95;6.18;;;16.40;99.90;;;;;;5060484;28;20487;-56
2023/06/09 06:43:14;;;;;;;13.20;6.57;;;16.60;99.90;;;;;;5059423;28;20071;-55
2023/06/09 06:45:40;;;;;;;12.77;6.68;;;16.80;99.90;;;;;;5059945;28;20049;-55
2023/06/09 06:48:06;;;;;;;14.63;7.20;;;17.00;99.90;;;;;;5059814;28;20045;-55
2023/06/09 06:50:32;;;;;;;13.43;6.53;;;17.20;99.90;;;;;;5059366;28;20053;-55
2023/06/09 06:52:58;;;;;;;13.52;6.82;;;17.30;99.90;;;;;;5060037;28;20074;-56
2023/06/09 06:55:24;;;;;;;11.40;6.32;;;17.50;99.90;;;;;;5059310;28;20051;-56
2023/06/09 06:57:50;;;;;;;11.35;6.13;;;17.70;99.90;;;;;;5059962;28;20068;-56
2023/06/09 07:00:16;;;;;;;13.63;6.32;;;17.90;99.90;;;;;;5059000;28;20033;-55
2023/06/09 07:02:46;;;;;;;14.98;6.28;;;18.10;99.90;;;;;;5059578;28;20044;-56
2023/06/09 07:05:12;;;;;;;10.38;6.50;;;18.30;99.90;;;;;;5059223;28;20037;-56
2023/06/09 07:07:38;;;;;;;14.43;6.22;;;18.40;99.90;;;;;;5059320;28;20056;-56
2023/06/09 07:10:05;;;;;;;13.10;6.22;;;18.60;99.90;;;;;;5059689;28;20056;-56
2023/06/09 07:12:32;;;;;;;14.05;6.78;;;18.70;99.90;;;;;;5059199;28;20041;-57
2023/06/09 07:14:58;;;;;;;12.48;6.63;;;18.90;99.90;;;;;;5058310;28;20069;-55
2023/06/09 07:17:24;;;;;;;12.13;6.40;;;19.00;99.90;;;;;;5058788;28;20044;-56
2023/06/09 07:19:49;;;;;;;12.60;7.07;;;19.30;99.90;;;;;;5059456;28;20661;-55
2023/06/09 07:22:15;;;;;;;13.52;6.22;;;19.40;99.90;;;;;;5058902;28;20045;-56
2023/06/09 07:24:41;;;;;;;11.98;6.55;;;19.60;99.90;;;;;;5059301;28;20037;-56
2023/06/09 07:27:08;;;;;;;13.65;6.95;;;19.70;99.90;;;;;;5059393;28;20066;-55
2023/06/09 07:29:35;;;;;;;11.45;6.65;;;19.90;99.90;;;;;;5058846;28;20033;-55
2023/06/09 07:32:04;;;;;;;13.10;6.38;;;20.10;99.90;;;;;;5059422;28;20077;-56
2023/06/09 07:34:31;;;;;;;15.82;6.53;;;20.40;99.90;;;;;;5058734;28;20074;-57
2023/06/09 07:36:59;;;;;;;10.23;5.93;;;20.70;99.90;;;;;;5059262;28;20068;-56
2023/06/09 07:39:25;;;;;;;13.18;6.18;;;21.00;99.90;;;;;;5059113;28;20428;-56
2023/06/09 07:41:51;;;;;;;13.13;6.18;;;21.20;99.90;;;;;;5059183;28;20056;-56
2023/06/09 07:44:17;;;;;;;10.75;5.93;;;21.40;99.90;;;;;;5059108;28;20045;-56
2023/06/09 07:46:42;;;;;;;11.18;5.82;;;21.70;99.90;;;;;;5058561;28;20045;-56
2023/06/09 07:49:08;;;;;;;10.05;5.40;;;21.90;99.90;;;;;;5059346;28;20037;-56
2023/06/09 07:51:37;;;;;;;14.02;6.22;;;22.10;99.90;;;;;;5058297;28;20532;-56
2023/06/09 07:54:06;;;;;;;12.63;5.30;;;22.30;99.90;;;;;;5059003;28;20045;-55
2023/06/09 07:56:32;;;;;;;13.98;5.63;;;22.40;99.90;;;;;;5058751;28;20047;-56
2023/06/09 07:58:58;;;;;;;13.88;6.00;;;22.50;99.90;;;;;;5058989;28;20045;-56
2023/06/09 08:01:25;;;;;;;10.48;5.30;;;22.70;99.90;;;;;;5058812;28;20044;-56
2023/06/09 08:03:50;;;;;;;11.55;5.43;;;22.80;99.90;;;;;;5024164;28;20040;-56
2023/06/09 08:06:16;;;;;;;10.65;5.32;;;23.00;99.90;;;;;;5058623;28;20409;-59
2023/06/09 08:08:43;;;;;;;11.55;5.28;;;23.10;99.90;;;;;;5058520;28;20123;-56
2023/06/09 08:11:10;;;;;;;13.25;5.20;;;23.20;99.90;;;;;;5058788;28;20461;-56
2023/06/09 08:13:35;;;;;;;9.20;5.20;;;23.30;99.90;;;;;;5058510;28;20103;-56
2023/06/09 08:16:01;;;;;;;10.30;5.15;;;23.40;99.90;;;;;;5058607;28;20057;-56
2023/06/09 08:18:26;;;;;;;10.60;5.30;;;23.60;99.90;;;;;;5058943;28;20077;-56
2023/06/09 08:20:52;;;;;;;10.90;4.57;;;23.70;99.90;;;;;;5058144;28;20044;-56
2023/06/09 08:23:20;;;;;;;9.43;5.22;;;23.90;99.90;;;;;;5059034;28;20056;-56
2023/06/09 08:25:47;;;;;;;12.35;5.88;;;24.00;99.90;;;;;;5058089;28;20048;-55
2023/06/09 08:28:13;;;;;;;9.68;5.20;;;24.10;99.90;;;;;;5058519;28;20037;-56
2023/06/09 08:30:39;;;;;;;11.65;5.47;;;24.30;99.90;;;;;;5058228;28;20045;-55
2023/06/09 08:33:04;;;;;;;10.15;4.97;;;24.40;99.90;;;;;;5058776;28;20091;-55
2023/06/09 08:35:32;;;;;;;9.85;5.10;;;24.60;99.90;;;;;;5058518;28;20055;-56
2023/06/09 08:37:58;;;;;;;9.05;4.38;;;24.60;99.90;;;;;;5058465;28;20142;-56
2023/06/09 08:40:24;;;;;;;11.98;5.50;;;24.70;99.90;;;;;;5058803;28;20049;-56
2023/06/09 08:42:55;;;;;;;11.30;4.75;;;24.70;99.90;;;;;;5059663;28;20071;-56
2023/06/09 08:45:22;;;;;;;12.52;4.50;;;24.90;99.90;;;;;;5062053;28;20040;-58
2023/06/09 08:47:49;;;;;;;9.68;5.25;;;25.10;99.70;;;;;;5062025;28;20045;-56
2023/06/09 08:50:18;;;;;;;8.85;4.60;;;25.10;99.10;;;;;;5061976;28;20089;-56
2023/06/09 08:52:45;;;;;;;9.88;4.90;;;25.20;98.90;;;;;;5062102;28;20097;-55
2023/06/09 08:55:13;;;;;;;9.60;4.93;;;25.20;98.30;;;;;;5061860;28;20033;-56
2023/06/09 08:57:40;;;;;;;8.82;4.50;;;25.30;98.40;;;;;;5062115;28;20072;-56
2023/06/09 09:00:09;;;;;;;9.88;5.15;;;25.40;98.60;;;;;;5061305;28;20110;-56
2023/06/09 09:02:35;;;;;;;8.52;4.75;;;25.50;98.20;;;;;;5061802;28;20071;-56
2023/06/09 09:05:01;;;;;;;10.18;5.38;;;25.60;98.30;;;;;;5061595;28;20040;-56
2023/06/09 09:07:28;;;;;;;10.73;4.85;;;25.80;97.90;;;;;;5061815;28;20041;-56
2023/06/09 09:09:54;;;;;;;9.38;4.90;;;25.80;97.60;;;;;;5062111;28;20064;-57
2023/06/09 09:12:20;;;;;;;12.20;5.50;;;26.00;97.60;;;;;;5061554;28;20448;-56
2023/06/09 09:14:46;;;;;;;10.25;5.15;;;26.10;96.70;;;;;;5061901;28;20652;-55
2023/06/09 09:17:14;;;;;;;9.98;5.22;;;26.10;96.60;;;;;;5061223;28;20045;-56
2023/06/09 09:19:49;;;;;;;9.25;4.57;;;26.20;96.80;;;;;;5061689;28;20044;-56
2023/06/09 09:22:15;;;;;;;11.18;4.97;;;26.30;97.00;;;;;;5061206;28;20053;-56
2023/06/09 09:24:45;;;;;;;8.25;4.63;;;26.40;96.70;;;;;;5061356;28;20045;-56
2023/06/09 09:27:18;;;;;;;11.32;5.38;;;26.50;96.30;;;;;;5061701;28;20067;-56
2023/06/09 09:29:45;;;;;;;9.00;5.05;;;26.60;96.20;;;;;;5060856;28;20075;-56
2023/06/09 09:32:12;;;;;;;8.98;5.00;;;26.60;95.70;;;;;;5061742;28;20043;-55
2023/06/09 09:34:41;;;;;;;11.02;4.65;;;26.70;96.00;;;;;;5060909;28;20392;-56
2023/06/09 09:37:11;;;;;;;9.85;4.90;;;26.70;95.90;;;;;;5061534;28;20049;-55
2023/06/09 09:39:50;;;;;;;9.25;5.07;;;26.80;95.30;;;;;;5061355;28;20392;-55
2023/06/09 09:42:17;;;;;;;8.55;5.22;;;26.90;94.30;;;;;;5060951;28;20041;-55
2023/06/09 09:44:48;;;;;;;9.70;5.22;;;26.80;95.10;;;;;;5060094;28;20049;-55
2023/06/09 09:47:15;;;;;;;10.75;4.88;;;26.90;94.70;;;;;;5060647;28;20041;-55
2023/06/09 09:50:00;;;;;;;8.48;5.00;;;26.90;94.80;;;;;;5061005;28;20044;-56
2023/06/09 09:52:32;;;;;;;10.88;5.68;;;26.90;94.90;;;;;;5060636;28;20041;-56
2023/06/09 09:55:04;;;;;;;7.55;4.68;;;26.80;94.60;;;;;;5059510;28;20065;-56
2023/06/09 09:57:31;;;;;;;7.75;4.45;;;26.80;94.60;;;;;;5061197;28;20045;-56
2023/06/09 10:00:03;;;;;;;7.50;4.85;;;26.90;94.50;;;;;;5060144;28;20509;-55
2023/06/09 10:02:30;;;;;;;9.88;4.88;;;26.90;94.50;;;;;;5060921;28;20087;-56
2023/06/09 10:04:56;;;;;;;6.95;4.57;;;26.90;94.20;;;;;;5060488;28;20043;-55
2023/06/09 10:07:26;;;;;;;10.63;4.80;;;26.90;94.40;;;;;;5060297;28;20053;-56
2023/06/09 10:09:52;;;;;;;7.82;4.85;;;27.00;94.70;;;;;;5060917;28;20059;-56
2023/06/09 10:12:21;;;;;;;8.13;4.47;;;27.00;94.60;;;;;;5060401;28;20068;-56
2023/06/09 10:14:50;;;;;;;9.98;5.00;;;27.00;94.40;;;;;;5060698;28;20037;-56
2023/06/09 10:17:20;;;;;;;7.80;4.55;;;27.00;93.60;;;;;;5060026;28;20472;-57
2023/06/09 10:19:50;;;;;;;12.07;4.97;;;27.00;92.80;;;;;;5060505;28;20115;-57
2023/06/09 10:22:17;;;;;;;10.10;5.68;;;26.90;92.70;;;;;;5060170;28;20397;-57
2023/06/09 10:24:44;;;;;;;7.55;4.88;;;26.90;92.70;;;;;;5060234;28;20055;-55
2023/06/09 10:27:10;;;;;;;7.18;4.50;;;26.90;92.70;;;;;;5060480;28;20389;-55
2023/06/09 10:29:36;;;;;;;8.82;4.78;;;26.80;92.60;;;;;;5060048;28;20037;-56
2023/06/09 10:32:03;;;;;;;8.38;4.97;;;26.80;92.10;;;;;;5060559;28;20087;-56
2023/06/09 10:34:32;;;;;;;9.82;4.55;;;26.70;91.60;;;;;;5059667;28;20044;-56
2023/06/09 10:36:59;;;;;;;8.73;4.95;;;26.70;91.80;;;;;;5060049;28;20037;-56
2023/06/09 10:39:42;;;;;;;8.85;5.30;;;26.60;92.10;;;;;;5060010;28;20041;-56
2023/06/09 10:42:25;;;;;;;8.02;4.78;;;26.70;91.80;;;;;;5059723;28;20041;-55
2023/06/09 10:45:13;;;;;;;8.07;4.57;;;26.70;91.60;;;;;;5060202;28;20049;-57
2023/06/09 10:47:48;;;;;;;10.77;4.68;;;26.70;91.30;;;;;;5059548;28;20080;-55
2023/06/09 10:50:30;;;;;;;8.43;4.70;;;26.60;91.20;;;;;;5059958;28;20064;-56
2023/06/09 10:52:57;;;;;;;6.45;4.53;;;26.70;91.40;;;;;;5058810;28;20096;-56
2023/06/09 10:55:24;;;;;;;6.80;4.72;;;26.70;91.10;;;;;;5059365;28;20055;-60
2023/06/09 10:57:52;;;;;;;8.10;4.97;;;26.80;90.80;;;;;;5060045;28;20129;-57
2023/06/09 11:00:18;;;;;;;8.70;5.07;;;26.80;90.50;;;;;;5059284;28;20500;-56
2023/06/09 11:02:45;;;;;;;10.38;4.68;;;26.80;90.50;;;;;;5059492;28;20045;-56
2023/06/09 11:05:12;;;;;;;5.60;4.40;;;26.90;90.30;;;;;;5059012;28;20052;-56
2023/06/09 11:08:03;;;;;;;7.85;4.90;;;26.90;90.40;;;;;;5059477;28;20049;-57
2023/06/09 11:10:29;;;;;;;8.57;4.65;;;26.90;90.60;;;;;;5059834;28;20049;-56
2023/06/09 11:12:56;;;;;;;6.45;4.70;;;27.10;90.60;;;;;;5058747;28;20351;-56
2023/06/09 11:15:42;;;;;;;6.03;4.50;;;27.20;90.70;;;;;;5059642;28;20124;-56
2023/06/09 11:18:16;;;;;;;8.65;4.47;;;27.30;90.20;;;;;;5059436;28;20037;-56
2023/06/09 11:20:41;;;;;;;7.25;4.97;;;27.40;90.40;;;;;;5058795;28;20091;-56
2023/06/09 11:23:07;;;;;;;6.00;4.40;;;27.50;89.10;;;;;;5059684;28;20037;-56
2023/06/09 11:25:33;;;;;;;9.52;4.72;;;27.60;88.60;;;;;;5058477;28;20078;-56
2023/06/09 11:28:02;;;;;;;7.00;4.65;;;27.70;88.40;;;;;;5059348;28;20071;-56
2023/06/09 11:30:32;;;;;;;6.90;4.88;;;27.70;87.20;;;;;;5058807;28;20033;-57
2023/06/09 11:33:00;;;;;;;6.45;4.85;;;27.80;87.40;;;;;;5059356;28;20048;-57
2023/06/09 11:35:29;;;;;;;6.72;4.65;;;27.80;86.10;;;;;;5059327;28;20049;-56
2023/06/09 11:37:56;;;;;;;6.40;4.28;;;27.90;84.60;;;;;;5058748;28;20100;-56
2023/06/09 11:40:22;;;;;;;5.75;4.38;;;27.90;84.90;;;;;;5059348;28;20056;-57
2023/06/09 11:42:48;;;;;;;7.90;4.53;;;28.00;83.80;;;;;;5058552;28;20093;-56
2023/06/09 11:45:15;;;;;;;7.28;4.50;;;28.10;83.20;;;;;;5059044;28;20052;-57
2023/06/09 11:47:42;;;;;;;8.55;4.43;;;28.30;83.60;;;;;;5058522;28;20497;-55
2023/06/09 11:50:11;;;;;;;9.07;4.60;;;28.40;83.70;;;;;;5058946;28;20081;-56
2023/06/09 11:52:45;;;;;;;7.38;4.60;;;28.50;81.40;;;;;;5058886;28;20064;-56
2023/06/09 11:55:13;;;;;;;7.90;4.70;;;28.60;81.20;;;;;;5058603;28;20480;-57
2023/06/09 11:57:39;;;;;;;6.00;3.90;;;28.60;79.70;;;;;;5059168;28;20059;-56
2023/06/09 12:00:18;;;;;;;7.85;4.90;;;28.70;80.10;;;;;;5057960;28;20100;-56
2023/06/09 12:02:47;;;;;;;6.20;4.60;;;28.70;79.80;;;;;;5059076;28;20037;-55
2023/06/09 12:05:13;;;;;;;7.43;5.13;;;28.70;79.60;;;;;;5058571;28;20045;-56
2023/06/09 12:07:46;;;;;;;8.80;4.28;;;28.80;80.40;;;;;;5058508;28;20080;-56
2023/06/09 12:10:17;;;;;;;6.38;4.45;;;28.90;80.40;;;;;;5059013;28;20057;-56
2023/06/09 12:12:47;;;;;;;8.52;4.40;;;29.00;79.20;;;;;;5058044;28;20045;-55
2023/06/09 12:15:15;;;;;;;6.97;4.60;;;29.10;78.30;;;;;;5058626;28;20049;-56
2023/06/09 12:17:42;;;;;;;7.07;5.03;;;29.10;77.00;;;;;;5059990;28;20101;-56
2023/06/09 12:20:36;;;;;;;9.10;4.50;;;29.10;76.70;;;;;;5062849;28;20049;-56
2023/06/09 12:23:02;;;;;;;6.20;4.40;;;29.20;76.60;;;;;;5061942;28;20049;-56
2023/06/09 12:25:31;;;;;;;5.80;4.53;;;29.20;76.80;;;;;;5062009;28;20052;-54
2023/06/09 12:28:11;;;;;;;6.22;4.70;;;29.30;76.90;;;;;;5062534;28;20052;-55
2023/06/09 12:30:40;;;;;;;7.28;4.30;;;29.50;76.50;;;;;;5062288;28;20095;-56
2023/06/09 12:33:13;;;;;;;10.13;4.32;;;29.80;76.90;;;;;;5061148;28;20045;-56
2023/06/09 12:35:47;;;;;;;10.52;4.70;;;30.00;75.70;;;;;;5062810;28;20083;-56
2023/06/09 12:38:25;;;;;;;8.45;4.80;;;30.10;74.50;;;;;;5062049;28;20124;-57
2023/06/09 12:41:08;;;;;;;5.70;4.32;;;30.30;73.60;;;;;;5062431;28;20086;-55
2023/06/09 12:43:59;;;;;;;6.72;4.13;;;30.50;74.20;;;;;;5062171;28;20101;-55
2023/06/09 12:46:27;;;;;;;6.80;4.50;;;30.80;73.70;;;;;;5061922;28;20037;-56